Time;durP1;ratioP1;P1;durP2;ratioP2;P2;SDS_P1;SDS_P2;PMS_P1;PMS_P2;Temp;Humidity;BMP_temperature;BMP_pressure;BME280_temperature;BME280_humidity;BME280_pressure;Samples;Min_cycle;Max_cycle;Signal;HPM_P1;HPM_P2
2022/10/22 00:01:39;;;;;;;;;2.00;2.00;;;;;17.06;67.70;100178.72;5099000;27;45429;-65
2022/10/22 00:04:05;;;;;;;;;2.00;2.00;;;;;17.06;67.62;100184.03;5088306;27;45405;-61
2022/10/22 00:06:30;;;;;;;;;2.00;2.00;;;;;17.02;67.74;100184.34;5098724;27;45350;-63
2022/10/22 00:08:56;;;;;;;;;2.00;2.00;;;;;16.99;67.82;100182.75;5098603;27;46237;-61
2022/10/22 00:11:21;;;;;;;;;1.67;1.67;;;;;16.95;67.63;100186.56;5098703;27;45436;-63
2022/10/22 00:13:47;;;;;;;;;2.00;2.00;;;;;16.93;68.24;100186.69;5094529;27;45462;-62
2022/10/22 00:16:12;;;;;;;;;2.00;2.00;;;;;16.93;67.73;100193.81;5094999;27;45413;-63
2022/10/22 00:18:39;;;;;;;;;4.00;2.00;;;;;16.87;67.74;100195.06;5098554;27;45541;-65
2022/10/22 00:21:05;;;;;;;;;1.75;1.75;;;;;16.87;67.68;100191.53;5098430;27;45507;-61
2022/10/22 00:23:30;;;;;;;;;2.75;2.75;;;;;16.88;67.90;100201.22;5098594;27;45423;-63
2022/10/22 00:25:56;;;;;;;;;2.00;2.00;;;;;16.89;68.08;100213.53;5098633;27;45418;-60
2022/10/22 00:28:22;;;;;;;;;4.00;3.00;;;;;16.87;67.84;100203.03;5096001;27;46561;-60
2022/10/22 00:30:47;;;;;;;;;1.75;1.75;;;;;16.86;67.72;100208.44;5088455;27;45440;-64
2022/10/22 00:33:13;;;;;;;;;3.00;2.00;;;;;16.79;67.91;100210.66;5098264;27;45500;-64
2022/10/22 00:35:38;;;;;;;;;1.33;1.33;;;;;16.81;67.87;100216.72;5097027;27;45549;-61
2022/10/22 00:38:03;;;;;;;;;1.50;1.50;;;;;16.82;68.30;100218.44;5087561;27;53283;-61
2022/10/22 00:40:30;;;;;;;;;1.67;1.67;;;;;16.83;67.51;100217.47;5092253;27;45483;-64
2022/10/22 00:42:55;;;;;;;;;2.33;2.33;;;;;16.81;68.29;100222.03;5090665;27;45575;-65
2022/10/22 00:45:24;;;;;;;;;3.00;2.00;;;;;16.83;68.27;100228.09;5093993;27;45362;-64
2022/10/22 00:48:03;;;;;;;;;3.00;3.00;;;;;16.85;67.98;100233.31;5098113;27;45516;-64
2022/10/22 00:50:50;;;;;;;;;1.67;1.67;;;;;16.82;67.75;100231.72;5093098;27;45437;-65
2022/10/22 00:53:20;;;;;;;;;2.33;2.33;;;;;16.81;68.25;100239.78;5096492;27;45479;-62
2022/10/22 00:55:50;;;;;;;;;2.00;2.00;;;;;16.82;67.99;100245.00;5093252;27;45488;-61
2022/10/22 00:58:17;;;;;;;;;2.75;2.00;;;;;16.79;68.03;100245.16;5083027;27;45457;-63
2022/10/22 01:00:43;;;;;;;;;1.75;1.75;;;;;16.77;68.32;100244.44;5077552;27;45430;-62
2022/10/22 01:03:09;;;;;;;;;2.67;2.00;;;;;16.79;68.21;100242.50;5097123;27;45404;-64
2022/10/22 01:06:02;;;;;;;;;2.00;2.00;;;;;16.75;68.01;100256.94;5093976;27;45477;-65
2022/10/22 01:08:56;;;;;;;;;1.75;1.75;;;;;16.76;67.99;100258.63;5077426;27;45374;-65
2022/10/22 01:11:41;;;;;;;;;1.25;1.00;;;;;16.76;67.97;100266.59;5094246;27;45394;-60
2022/10/22 01:14:17;;;;;;;;;0.75;0.50;;;;;16.77;67.61;100260.38;5097933;27;45407;-61
2022/10/22 01:17:05;;;;;;;;;1.00;1.00;;;;;16.80;67.68;100269.94;5097880;27;45303;-64
2022/10/22 01:19:51;;;;;;;;;0.75;0.75;;;;;16.79;67.82;100269.06;5097499;27;45519;-61
2022/10/22 01:22:29;;;;;;;;;1.33;1.33;;;;;16.78;67.65;100264.72;5086294;27;45697;-62
2022/10/22 01:25:03;;;;;;;;;1.00;1.00;;;;;16.79;67.70;100274.38;5096176;27;45495;-61
2022/10/22 01:28:12;;;;;;;;;1.33;1.33;;;;;16.78;67.72;100275.34;5086594;27;45524;-62
2022/10/22 01:30:39;;;;;;;;;1.33;1.33;;;;;16.78;67.24;100278.84;5077193;27;45441;-63
2022/10/22 01:33:10;;;;;;;;;2.67;1.33;;;;;16.81;67.83;100283.09;5097566;27;45590;-62
2022/10/22 01:35:40;;;;;;;;;1.00;1.00;;;;;16.82;67.37;100283.97;5096437;27;45458;-64
2022/10/22 01:38:11;;;;;;;;;2.33;2.00;;;;;16.82;67.42;100295.47;5097501;27;45432;-64
2022/10/22 01:40:38;;;;;;;;;1.75;1.75;;;;;16.81;67.31;100292.88;5096751;27;46655;-62
2022/10/22 01:43:07;;;;;;;;;6.00;1.33;;;;;16.78;67.42;100293.94;5094680;27;45388;-62
2022/10/22 01:45:36;;;;;;;;;1.00;1.00;;;;;16.76;67.41;100296.69;5097346;27;45497;-64
2022/10/22 01:48:40;;;;;;;;;2.50;1.00;;;;;16.78;67.39;100296.59;5087257;27;45715;-63
2022/10/22 01:51:23;;;;;;;;;1.25;1.00;;;;;16.82;67.45;100299.91;5084456;27;45499;-62
2022/10/22 01:53:55;;;;;;;;;2.00;2.00;;;;;16.82;67.30;100295.47;5096046;27;45501;-64
2022/10/22 01:56:35;;;;;;;;;1.00;1.00;;;;;16.83;66.75;100301.63;5097073;27;45430;-62
2022/10/22 01:59:13;;;;;;;;;4.33;2.33;;;;;16.82;67.10;100297.25;5094637;27;45654;-61
2022/10/22 02:01:47;;;;;;;;;1.25;1.00;;;;;16.84;67.14;100290.88;5085659;27;46157;-63
2022/10/22 02:04:40;;;;;;;;;1.00;1.00;;;;;16.86;67.39;100293.44;5096585;27;45446;-62
2022/10/22 02:07:10;;;;;;;;;2.50;1.50;;;;;16.87;67.45;100295.13;5088269;27;45331;-61
2022/10/22 02:09:38;;;;;;;;;2.00;2.00;;;;;16.91;67.24;100299.31;5096559;27;45471;-64
2022/10/22 02:12:07;;;;;;;;;2.00;2.00;;;;;16.92;66.59;100299.19;5096882;27;45493;-63
2022/10/22 02:14:36;;;;;;;;;1.00;1.00;;;;;16.94;67.08;100304.41;5096703;27;45463;-63
2022/10/22 02:17:03;;;;;;;;;1.00;1.00;;;;;16.95;66.48;100306.97;5096976;27;45378;-63
2022/10/22 02:19:45;;;;;;;;;3.00;2.00;;;;;16.96;66.93;100307.81;5085368;27;45511;-62
2022/10/22 02:22:10;;;;;;;;;0.67;0.00;;;;;17.00;66.75;100315.47;5096572;27;45496;-60
2022/10/22 02:24:36;;;;;;;;;1.50;1.25;;;;;17.00;66.33;100311.97;5096774;27;45448;-63
2022/10/22 02:27:15;;;;;;;;;1.67;1.67;;;;;16.98;66.83;100311.22;5096816;27;45424;-64
2022/10/22 02:29:51;;;;;;;;;1.25;1.25;;;;;16.98;66.66;100313.88;5097158;27;45454;-61
2022/10/22 02:32:20;;;;;;;;;1.00;1.00;;;;;16.94;66.66;100307.91;5096643;27;46230;-61
2022/10/22 02:34:48;;;;;;;;;1.67;1.67;;;;;16.91;67.01;100305.47;5095101;27;45461;-65
2022/10/22 02:37:15;;;;;;;;;1.00;1.00;;;;;16.90;66.69;100309.09;5096667;27;45455;-63
2022/10/22 02:39:41;;;;;;;;;1.00;1.00;;;;;16.92;67.07;100314.28;5096830;27;45605;-63
2022/10/22 02:42:08;;;;;;;;;1.00;0.75;;;;;16.93;66.71;100316.00;5096245;27;46044;-64
2022/10/22 02:44:33;;;;;;;;;1.25;1.25;;;;;16.90;66.89;100319.72;5083627;27;45404;-64
2022/10/22 02:46:59;;;;;;;;;3.25;1.75;;;;;16.86;67.02;100320.84;5094745;27;45365;-64
2022/10/22 02:49:24;;;;;;;;;1.00;1.00;;;;;16.85;67.42;100321.81;5096228;27;45485;-64
2022/10/22 02:51:50;;;;;;;;;2.00;2.00;;;;;16.83;67.17;100330.84;5096308;27;46140;-62
2022/10/22 02:54:15;;;;;;;;;2.33;0.67;;;;;16.78;67.56;100336.44;5094965;27;45394;-61
2022/10/22 02:56:40;;;;;;;;;2.00;1.00;;;;;16.80;67.05;100331.88;5096363;27;45486;-64
2022/10/22 02:59:06;;;;;;;;;2.00;1.00;;;;;16.78;67.63;100347.91;5094793;27;45616;-61
2022/10/22 03:01:31;;;;;;;;;4.33;1.67;;;;;16.81;66.95;100341.53;5083296;27;54800;-62
2022/10/22 03:03:56;;;;;;;;;1.00;1.00;;;;;16.79;67.75;100354.06;5094729;27;45581;-64
2022/10/22 03:06:22;;;;;;;;;2.67;2.67;;;;;16.76;67.54;100340.97;5096172;27;45402;-62
2022/10/22 03:08:47;;;;;;;;;2.33;2.33;;;;;16.78;67.72;100355.03;5095991;27;45601;-62
2022/10/22 03:11:12;;;;;;;;;3.33;1.67;;;;;16.76;67.71;100351.59;5095882;27;46024;-61
2022/10/22 03:13:38;;;;;;;;;3.33;1.33;;;;;16.76;67.20;100349.81;5095987;27;48933;-64
2022/10/22 03:16:03;;;;;;;;;2.67;2.67;;;;;16.73;67.19;100359.75;5096228;27;45436;-63
2022/10/22 03:18:29;;;;;;;;;3.00;2.00;;;;;16.72;67.95;100352.75;5097709;27;45382;-61
2022/10/22 03:21:27;;;;;;;;;2.33;1.33;;;;;16.69;67.63;100356.44;5099377;27;45828;-62
2022/10/22 03:23:53;;;;;;;;;1.33;1.33;;;;;16.69;67.45;100367.06;5099613;27;45338;-65
2022/10/22 03:26:19;;;;;;;;;0.33;0.33;;;;;16.69;67.93;100360.91;5099552;27;45417;-61
2022/10/22 03:28:47;;;;;;;;;0.67;0.67;;;;;16.69;67.76;100364.41;5099885;27;45390;-65
2022/10/22 03:31:12;;;;;;;;;1.33;1.33;;;;;16.68;67.66;100365.34;5099168;27;46957;-61
2022/10/22 03:33:38;;;;;;;;;1.00;1.00;;;;;16.68;68.03;100367.16;5099398;27;45421;-64
2022/10/22 03:36:05;;;;;;;;;3.00;3.00;;;;;16.68;67.59;100372.47;5099589;27;46049;-63
2022/10/22 03:38:30;;;;;;;;;4.33;3.33;;;;;16.66;68.22;100369.09;5099268;27;45580;-61
2022/10/22 03:40:56;;;;;;;;;3.33;2.33;;;;;16.67;67.72;100373.44;5098808;27;46046;-62
2022/10/22 03:43:22;;;;;;;;;2.00;2.00;;;;;16.65;67.87;100373.53;5099082;27;45562;-60
2022/10/22 03:45:47;;;;;;;;;3.67;2.33;;;;;16.65;68.14;100376.19;5099270;27;45451;-64
2022/10/22 03:48:12;;;;;;;;;2.00;2.00;;;;;16.63;68.37;100375.44;5099150;27;45468;-61
2022/10/22 03:50:38;;;;;;;;;3.33;2.67;;;;;16.60;68.22;100375.63;5098816;27;45424;-60
2022/10/22 03:53:03;;;;;;;;;2.00;2.00;;;;;16.54;68.46;100379.50;5099011;27;45349;-64
2022/10/22 03:55:28;;;;;;;;;5.00;2.33;;;;;16.51;68.29;100387.69;5099235;27;45484;-62
2022/10/22 03:57:54;;;;;;;;;2.33;1.67;;;;;16.50;68.39;100379.84;5099167;27;45345;-60
2022/10/22 04:00:19;;;;;;;;;1.67;1.67;;;;;16.50;68.87;100382.50;5086625;27;46024;-61
2022/10/22 04:02:45;;;;;;;;;2.00;2.00;;;;;16.46;68.26;100387.13;5096706;27;45626;-61
2022/10/22 04:05:10;;;;;;;;;2.00;2.00;;;;;16.42;68.73;100390.94;5099192;27;45475;-63
2022/10/22 04:07:35;;;;;;;;;2.67;2.67;;;;;16.44;68.93;100393.47;5098501;27;49336;-64
2022/10/22 04:10:00;;;;;;;;;2.33;2.33;;;;;16.42;68.72;100393.59;5098633;27;46008;-62
2022/10/22 04:12:26;;;;;;;;;0.67;0.67;;;;;16.41;68.78;100391.84;5098810;27;45385;-62
2022/10/22 04:14:51;;;;;;;;;1.33;1.33;;;;;16.40;69.21;100398.13;5098780;27;45388;-62
2022/10/22 04:17:17;;;;;;;;;0.67;0.67;;;;;16.42;69.46;100404.19;5099067;27;45565;-61
2022/10/22 04:19:42;;;;;;;;;2.67;1.33;;;;;16.47;69.17;100404.78;5098556;27;45396;-62
2022/10/22 04:22:07;;;;;;;;;1.00;1.00;;;;;16.47;68.65;100411.84;5098646;27;45547;-61
2022/10/22 04:24:32;;;;;;;;;2.33;1.33;;;;;16.48;69.13;100401.16;5098206;27;48785;-65
2022/10/22 04:26:58;;;;;;;;;2.00;2.00;;;;;16.49;68.95;100409.97;5098680;27;45563;-61
2022/10/22 04:29:23;;;;;;;;;1.67;1.67;;;;;16.51;68.95;100416.88;5098611;27;46071;-61
2022/10/22 04:31:49;;;;;;;;;1.67;1.67;;;;;16.56;68.38;100412.13;5098344;27;45369;-62
2022/10/22 04:34:14;;;;;;;;;1.67;0.67;;;;;16.58;68.69;100412.06;5098633;27;45382;-60
2022/10/22 04:36:40;;;;;;;;;2.67;2.33;;;;;16.59;68.65;100420.88;5098447;27;45349;-61
2022/10/22 04:39:05;;;;;;;;;4.33;3.67;;;;;16.57;68.27;100426.25;5098347;27;45440;-63
2022/10/22 04:41:33;;;;;;;;;2.33;2.33;;;;;16.59;68.75;100427.03;5097785;27;45530;-60
2022/10/22 04:43:59;;;;;;;;;2.33;2.00;;;;;16.57;68.17;100432.41;5098166;27;45382;-61
2022/10/22 04:46:28;;;;;;;;;3.00;2.00;;;;;16.59;68.68;100426.19;5097988;27;45591;-64
2022/10/22 04:48:54;;;;;;;;;3.00;1.67;;;;;16.55;68.71;100425.53;5097626;27;46677;-65
2022/10/22 04:51:21;;;;;;;;;1.00;1.00;;;;;16.53;68.87;100433.56;5098034;27;45420;-64
2022/10/22 04:53:47;;;;;;;;;3.67;3.67;;;;;16.54;68.50;100435.28;5098029;27;45425;-62
2022/10/22 04:56:18;;;;;;;;;2.00;2.00;;;;;16.49;69.20;100437.34;5098134;27;45335;-62
2022/10/22 04:58:44;;;;;;;;;1.67;1.67;;;;;16.52;68.96;100441.63;5097658;27;46452;-65
2022/10/22 05:01:18;;;;;;;;;1.67;1.67;;;;;16.51;69.21;100435.47;5081787;27;45450;-60
2022/10/22 05:03:44;;;;;;;;;1.00;1.00;;;;;16.50;69.34;100440.88;5098077;27;45450;-62
2022/10/22 05:06:10;;;;;;;;;1.67;1.67;;;;;16.50;69.35;100431.13;5097822;27;45421;-64
2022/10/22 05:08:36;;;;;;;;;3.00;2.00;;;;;16.52;68.99;100442.50;5097534;27;45552;-61
2022/10/22 05:11:10;;;;;;;;;2.67;2.67;;;;;16.53;69.51;100438.88;5097671;27;45334;-64
2022/10/22 05:13:35;;;;;;;;;3.67;3.00;;;;;16.53;69.13;100440.69;5097878;27;45376;-63
2022/10/22 05:16:01;;;;;;;;;5.33;2.00;;;;;16.54;68.77;100429.13;5097036;27;58369;-62
2022/10/22 05:18:26;;;;;;;;;4.00;1.33;;;;;16.55;68.98;100442.31;5097739;27;45373;-60
2022/10/22 05:20:51;;;;;;;;;0.00;0.00;;;;;16.55;68.66;100447.63;5097391;27;49518;-61
2022/10/22 05:23:16;;;;;;;;;1.33;1.33;;;;;16.53;68.86;100460.13;5097467;27;45472;-64
2022/10/22 05:25:42;;;;;;;;;2.67;2.67;;;;;16.45;68.85;100442.97;5097468;27;46158;-64
2022/10/22 05:28:07;;;;;;;;;4.33;3.00;;;;;16.43;69.36;100452.84;5097662;27;45464;-61
2022/10/22 05:30:32;;;;;;;;;5.33;4.00;;;;;16.40;69.70;100459.19;5097369;27;45458;-60
2022/10/22 05:32:58;;;;;;;;;2.33;2.33;;;;;16.39;69.85;100461.91;5097387;27;45416;-64
2022/10/22 05:35:23;;;;;;;;;2.00;2.00;;;;;16.39;69.56;100457.50;5097739;27;45612;-60
2022/10/22 05:37:48;;;;;;;;;2.00;2.00;;;;;16.40;69.77;100461.00;5096882;27;57869;-62
2022/10/22 05:40:14;;;;;;;;;2.67;1.33;;;;;16.39;69.46;100461.91;5096624;27;45520;-64
2022/10/22 05:42:39;;;;;;;;;3.33;2.67;;;;;16.35;70.06;100461.25;5096935;27;45508;-62
2022/10/22 05:45:05;;;;;;;;;2.67;1.67;;;;;16.31;69.29;100460.59;5097257;27;45565;-64
2022/10/22 05:47:30;;;;;;;;;2.67;1.67;;;;;16.31;69.73;100467.72;5097047;27;45469;-62
2022/10/22 05:49:58;;;;;;;;;3.67;3.67;;;;;16.31;69.36;100470.38;5096873;27;45452;-64
2022/10/22 05:52:24;;;;;;;;;3.33;3.33;;;;;16.31;69.59;100476.53;5097196;27;45466;-63
2022/10/22 05:54:49;;;;;;;;;2.00;2.00;;;;;16.31;69.59;100473.03;5097113;27;45350;-61
2022/10/22 05:57:14;;;;;;;;;3.00;3.00;;;;;16.31;69.67;100476.53;5096621;27;45407;-65
2022/10/22 05:59:39;;;;;;;;;1.67;1.67;;;;;16.25;69.55;100473.38;5090296;27;45520;-62
2022/10/22 06:02:05;;;;;;;;;3.00;1.33;;;;;16.23;70.52;100473.50;5089422;27;45741;-61
2022/10/22 06:04:31;;;;;;;;;2.33;2.00;;;;;16.22;70.51;100476.22;5093842;27;45413;-64
2022/10/22 06:06:56;;;;;;;;;1.00;1.00;;;;;16.19;69.88;100481.72;5096348;27;45902;-63
2022/10/22 06:09:29;;;;;;;;;2.33;2.00;;;;;16.14;70.37;100479.34;5096470;27;45525;-67
2022/10/22 06:11:56;;;;;;;;;2.33;2.33;;;;;16.11;70.61;100475.06;5096585;27;45465;-62
2022/10/22 06:14:22;;;;;;;;;2.67;2.67;;;;;16.09;70.50;100479.63;5096569;27;45552;-62
2022/10/22 06:16:48;;;;;;;;;2.67;2.00;;;;;16.11;70.26;100477.72;5096583;27;46112;-63
2022/10/22 06:19:16;;;;;;;;;2.67;2.33;;;;;16.10;70.27;100484.00;5096579;27;45404;-62
2022/10/22 06:21:42;;;;;;;;;6.33;5.33;;;;;16.16;70.62;100492.53;5096645;27;45415;-63
2022/10/22 06:24:09;;;;;;;;;3.33;3.00;;;;;16.18;70.00;100493.31;5097474;27;45576;-65
2022/10/22 06:26:34;;;;;;;;;3.00;3.00;;;;;16.18;69.96;100498.59;5096300;27;45555;-64
2022/10/22 06:28:59;;;;;;;;;2.33;1.33;;;;;16.18;69.77;100501.25;5096875;27;45412;-64
2022/10/22 06:31:26;;;;;;;;;2.00;2.00;;;;;16.11;70.36;100500.75;5093348;27;45470;-63
2022/10/22 06:33:52;;;;;;;;;2.33;2.33;;;;;16.08;70.60;100499.13;5093097;27;45510;-66
2022/10/22 06:36:20;;;;;;;;;5.67;2.67;;;;;16.09;71.10;100508.81;5096134;27;47992;-63
2022/10/22 06:38:45;;;;;;;;;5.00;3.33;;;;;16.12;70.79;100508.63;5096604;27;45464;-64
2022/10/22 06:41:15;;;;;;;;;3.00;3.00;;;;;16.13;70.52;100509.47;5083521;27;45560;-66
2022/10/22 06:43:44;;;;;;;;;3.00;3.00;;;;;16.13;70.48;100515.63;5087694;27;45536;-63
2022/10/22 06:46:10;;;;;;;;;4.33;3.00;;;;;16.15;70.82;100514.69;5091036;27;45498;-65
2022/10/22 06:48:37;;;;;;;;;3.00;2.67;;;;;16.15;70.25;100520.88;5095456;27;45448;-65
2022/10/22 06:51:08;;;;;;;;;2.00;2.00;;;;;16.11;70.97;100522.84;5076404;27;45455;-66
2022/10/22 06:53:35;;;;;;;;;3.67;2.00;;;;;16.09;70.36;100524.75;5081374;27;45384;-65
2022/10/22 06:56:09;;;;;;;;;2.00;2.00;;;;;16.12;70.53;100534.31;5080940;27;45704;-65
2022/10/22 06:58:34;;;;;;;;;2.33;2.33;;;;;16.11;70.90;100537.91;5079436;27;45490;-64
2022/10/22 07:01:05;;;;;;;;;3.33;3.00;;;;;16.12;70.34;100540.47;5085132;27;45460;-65
2022/10/22 07:03:31;;;;;;;;;2.67;2.67;;;;;16.15;70.66;100544.75;5099709;27;45599;-65
2022/10/22 07:06:05;;;;;;;;;2.67;2.67;;;;;16.16;70.11;100550.91;5092681;27;45928;-64
2022/10/22 07:08:31;;;;;;;;;2.67;1.67;;;;;16.19;70.63;100553.38;5099685;27;45342;-64
2022/10/22 07:11:04;;;;;;;;;3.67;2.67;;;;;16.23;69.92;100560.22;5098508;27;45509;-67
2022/10/22 07:13:29;;;;;;;;;3.67;3.67;;;;;16.25;70.61;100566.25;5083477;27;45538;-62
2022/10/22 07:15:54;;;;;;;;;1.67;1.67;;;;;16.27;69.90;100561.72;5083946;27;49347;-59
2022/10/22 07:18:21;;;;;;;;;3.67;3.00;;;;;16.27;69.65;100570.53;5095381;27;45418;-64
2022/10/22 07:20:47;;;;;;;;;2.33;2.33;;;;;16.29;69.90;100571.31;5092065;27;45433;-65
2022/10/22 07:23:13;;;;;;;;;2.00;2.00;;;;;16.31;70.24;100573.88;5094310;27;45588;-64
2022/10/22 07:25:38;;;;;;;;;3.67;3.00;;;;;16.34;70.53;100579.00;5089238;27;45378;-64
2022/10/22 07:28:03;;;;;;;;;4.67;4.67;;;;;16.38;70.02;100572.56;5083328;27;45540;-59
2022/10/22 07:30:29;;;;;;;;;5.00;4.33;;;;;16.37;69.94;100580.63;5099159;27;45421;-59
2022/10/22 07:32:54;;;;;;;;;3.33;2.67;;;;;16.40;69.98;100578.63;5084266;27;47605;-59
2022/10/22 07:35:19;;;;;;;;;3.33;3.33;;;;;16.43;69.84;100583.75;5094159;27;46225;-63
2022/10/22 07:37:45;;;;;;;;;4.00;3.00;;;;;16.45;70.24;100586.31;5082162;27;45343;-62
2022/10/22 07:40:10;;;;;;;;;3.33;3.33;;;;;16.45;69.85;100587.16;5087847;27;45727;-62
2022/10/22 07:42:36;;;;;;;;;3.00;3.00;;;;;16.45;69.19;100589.81;5094454;27;45440;-62
2022/10/22 07:45:01;;;;;;;;;2.00;2.00;;;;;16.49;69.46;100593.13;5098796;27;46115;-61
2022/10/22 07:47:26;;;;;;;;;3.33;3.33;;;;;16.51;69.47;100597.41;5097858;27;45505;-63
2022/10/22 07:49:51;;;;;;;;;5.33;5.33;;;;;16.55;68.86;100595.44;5099119;27;45447;-63
2022/10/22 07:52:17;;;;;;;;;3.33;3.33;;;;;16.55;68.93;100606.91;5098395;27;51838;-62
2022/10/22 07:54:42;;;;;;;;;3.33;3.33;;;;;16.57;69.05;100602.34;5098491;27;45926;-61
2022/10/22 07:57:08;;;;;;;;;3.00;3.00;;;;;16.57;69.11;100598.84;5098749;27;46534;-61
2022/10/22 07:59:33;;;;;;;;;4.67;2.67;;;;;16.60;68.84;100601.31;5093301;27;45480;-60
2022/10/22 08:01:58;;;;;;;;;4.33;4.33;;;;;16.63;68.59;100608.25;5090421;27;45436;-62
2022/10/22 08:04:24;;;;;;;;;5.00;4.00;;;;;16.63;68.75;100605.59;5097706;27;59225;-63
2022/10/22 08:06:49;;;;;;;;;4.00;4.00;;;;;16.63;68.43;100597.63;5098620;27;45440;-62
2022/10/22 08:09:14;;;;;;;;;5.33;3.67;;;;;16.64;68.68;100609.97;5097957;27;45519;-62
2022/10/22 08:11:39;;;;;;;;;5.67;2.67;;;;;16.66;68.71;100616.91;5098733;27;45416;-64
2022/10/22 08:14:05;;;;;;;;;7.00;4.00;;;;;16.68;68.48;100622.09;5097805;27;45519;-61
2022/10/22 08:16:30;;;;;;;;;3.00;3.00;;;;;16.70;68.54;100620.22;5098511;27;45419;-63
2022/10/22 08:18:55;;;;;;;;;2.67;2.67;;;;;16.71;68.60;100616.59;5086582;27;45523;-61
2022/10/22 08:21:21;;;;;;;;;2.67;2.67;;;;;16.72;68.37;100618.31;5095165;27;45648;-60
2022/10/22 08:23:46;;;;;;;;;4.00;2.33;;;;;16.73;68.47;100612.91;5098485;27;46030;-63
2022/10/22 08:26:11;;;;;;;;;4.33;4.00;;;;;16.74;68.81;100617.28;5098254;27;45368;-62
2022/10/22 08:28:37;;;;;;;;;5.67;4.00;;;;;16.82;68.11;100624.81;5098941;27;45420;-63
2022/10/22 08:31:04;;;;;;;;;2.00;2.00;;;;;16.87;68.32;100613.88;5098414;27;45317;-62
2022/10/22 08:33:29;;;;;;;;;3.00;3.00;;;;;16.87;67.82;100628.06;5096429;27;47240;-60
2022/10/22 08:35:55;;;;;;;;;3.00;2.67;;;;;16.89;67.70;100609.34;5098160;27;45357;-64
2022/10/22 08:38:20;;;;;;;;;5.00;5.00;;;;;16.94;67.70;100618.75;5097742;27;45531;-63
2022/10/22 08:41:04;;;;;;;;;2.67;2.67;;;;;16.94;68.10;100613.41;5097563;27;45617;-61
2022/10/22 08:44:07;;;;;;;;;3.00;3.00;;;;;16.94;67.87;100613.41;5097944;27;45401;-62
2022/10/22 08:47:23;;;;;;;;;1.67;1.67;;;;;16.99;67.47;100611.34;5097298;27;45462;-63
2022/10/22 08:49:48;;;;;;;;;3.67;2.00;;;;;17.06;67.71;100616.25;5043958;28;45442;-62
2022/10/22 08:52:17;;;;;;;;;3.00;3.00;;;;;17.10;67.49;100612.47;5054476;28;45364;-63
2022/10/22 08:54:57;;;;;;;;;2.67;2.67;;;;;17.12;67.56;100619.41;5066402;27;46163;-63
2022/10/22 08:57:54;;;;;;;;;2.67;1.33;;;;;17.14;67.79;100621.94;5091733;27;45465;-61
2022/10/22 09:00:30;;;;;;;;;2.67;1.67;;;;;17.18;67.49;100626.16;5085578;27;45492;-69
2022/10/22 09:03:10;;;;;;;;;4.67;4.33;;;;;17.26;67.60;100626.50;5094388;27;45630;-66
2022/10/22 09:05:50;;;;;;;;;3.00;2.00;;;;;17.28;67.33;100624.63;5085322;27;46152;-69
2022/10/22 09:08:18;;;;;;;;;3.33;2.67;;;;;17.33;67.45;100625.19;5084679;27;45533;-64
2022/10/22 09:11:05;;;;;;;;;3.67;3.67;;;;;17.39;67.25;100629.25;5091180;27;45503;-64
2022/10/22 09:13:30;;;;;;;;;4.00;4.00;;;;;17.47;67.07;100629.63;5091810;27;45538;-64
2022/10/22 09:16:11;;;;;;;;;3.00;3.00;;;;;17.49;67.35;100627.72;5096113;27;45432;-64
2022/10/22 09:18:49;;;;;;;;;3.67;3.00;;;;;17.54;67.37;100616.78;5089151;27;45656;-63
2022/10/22 09:21:36;;;;;;;;;2.33;2.33;;;;;17.58;67.42;100620.97;5086287;27;45626;-64
2022/10/22 09:24:40;;;;;;;;;2.00;2.00;;;;;17.61;66.95;100623.44;5097104;27;45464;-63
2022/10/22 09:27:19;;;;;;;;;4.67;3.00;;;;;17.67;66.83;100620.34;5083059;27;46425;-59
2022/10/22 09:29:46;;;;;;;;;2.00;2.00;;;;;17.74;67.02;100624.34;5095028;27;45579;-61
2022/10/22 09:32:12;;;;;;;;;3.33;2.67;;;;;17.78;66.48;100627.66;5085349;27;45453;-60
2022/10/22 09:34:38;;;;;;;;;3.67;2.67;;;;;17.80;66.36;100629.28;5095569;27;45380;-60
2022/10/22 09:37:08;;;;;;;;;6.33;4.00;;;;;17.84;66.48;100636.13;5095766;27;45481;-61
2022/10/22 09:39:38;;;;;;;;;3.33;3.33;;;;;17.89;66.61;100619.84;5095941;27;45397;-61
2022/10/22 09:42:05;;;;;;;;;4.33;3.67;;;;;17.95;66.39;100630.09;5095917;27;45511;-61
2022/10/22 09:44:34;;;;;;;;;4.00;4.00;;;;;18.00;66.12;100630.66;5096031;27;45492;-60
2022/10/22 09:47:06;;;;;;;;;3.33;3.33;;;;;18.05;66.09;100622.34;5095600;27;45914;-61
2022/10/22 09:49:34;;;;;;;;;5.00;3.00;;;;;18.08;66.56;100617.69;5096671;27;45402;-59
2022/10/22 09:52:01;;;;;;;;;5.00;4.00;;;;;18.08;66.54;100609.72;5095300;27;45393;-60
2022/10/22 09:54:32;;;;;;;;;4.67;4.33;;;;;18.12;66.86;100617.50;5097024;27;45548;-60
2022/10/22 09:57:04;;;;;;;;;4.67;2.33;;;;;18.15;66.40;100615.47;5096694;27;46400;-59
2022/10/22 09:59:37;;;;;;;;;3.33;3.33;;;;;18.22;66.79;100610.59;5091496;27;45419;-59
2022/10/22 10:02:11;;;;;;;;;5.25;3.00;;;;;18.26;66.06;100617.41;5088851;27;45506;-60
2022/10/22 10:04:45;;;;;;;;;6.25;4.00;;;;;18.27;66.56;100617.31;5096607;27;45444;-61
2022/10/22 10:07:46;;;;;;;;;5.25;3.75;;;;;18.27;65.91;100619.97;5096424;27;46190;-60
2022/10/22 10:10:47;;;;;;;;;2.00;2.00;;;;;18.30;66.01;100609.13;5084249;27;45406;-60
2022/10/22 10:13:41;;;;;;;;;3.00;2.00;;;;;18.36;66.84;100617.66;5095889;27;45380;-61
2022/10/22 10:16:14;;;;;;;;;1.50;1.50;;;;;18.37;65.68;100616.69;5094964;27;45452;-60
2022/10/22 10:18:53;;;;;;;;;5.00;4.00;;;;;18.50;66.43;100622.88;5096621;27;45381;-58
2022/10/22 10:21:56;;;;;;;;;4.00;2.25;;;;;18.67;65.56;100619.94;5094634;27;45495;-61
2022/10/22 10:25:03;;;;;;;;;3.50;3.50;;;;;18.72;65.63;100625.78;5060178;27;45558;-68
2022/10/22 10:28:18;;;;;;;;;2.00;2.00;;;;;18.71;65.75;100618.75;5079875;27;45547;-69
2022/10/22 10:31:15;;;;;;;;;3.75;3.75;;;;;18.73;65.62;100632.81;5038752;28;46729;-63
2022/10/22 10:34:13;;;;;;;;;2.50;2.00;;;;;18.74;65.43;100636.34;5034386;28;45451;-64
2022/10/22 10:36:53;;;;;;;;;4.50;3.75;;;;;18.77;65.53;100629.00;5079517;27;45532;-64
2022/10/22 10:40:01;;;;;;;;;1.50;1.50;;;;;18.81;64.86;100631.50;5087992;27;45475;-64
2022/10/22 10:42:38;;;;;;;;;1.75;1.75;;;;;18.81;64.82;100636.81;5096106;27;46436;-64
2022/10/22 10:45:31;;;;;;;;;5.00;2.50;;;;;18.82;64.82;100638.50;5095949;27;45409;-64
2022/10/22 10:48:02;;;;;;;;;3.25;3.25;;;;;18.84;65.16;100628.59;5092013;27;45420;-64
2022/10/22 10:50:47;;;;;;;;;5.00;5.00;;;;;18.86;65.49;100637.31;5082458;27;45574;-63
2022/10/22 10:53:32;;;;;;;;;3.50;3.00;;;;;18.89;65.11;100642.47;5089209;27;45473;-63
2022/10/22 10:56:12;;;;;;;;;2.75;2.75;;;;;18.89;64.93;100637.97;5088713;27;45515;-63
2022/10/22 10:58:46;;;;;;;;;3.50;3.25;;;;;18.88;64.90;100628.25;5096260;27;45472;-63
2022/10/22 11:01:34;;;;;;;;;2.25;2.25;;;;;18.93;65.16;100636.78;5081921;27;45387;-65
2022/10/22 11:04:23;;;;;;;;;1.00;1.00;;;;;18.95;65.50;100629.56;5095059;27;46625;-63
2022/10/22 11:06:53;;;;;;;;;1.50;1.50;;;;;18.97;65.55;100627.63;5094730;27;45418;-61
2022/10/22 11:09:25;;;;;;;;;4.25;3.00;;;;;19.01;65.27;100641.59;5095958;27;45450;-60
2022/10/22 11:12:02;;;;;;;;;3.00;2.25;;;;;19.00;65.04;100641.72;5081799;27;45542;-61
2022/10/22 11:14:48;;;;;;;;;3.50;2.75;;;;;19.02;64.95;100635.31;5083236;27;47894;-61
2022/10/22 11:17:17;;;;;;;;;4.00;3.00;;;;;19.05;64.79;100628.88;5095437;27;45399;-61
2022/10/22 11:19:51;;;;;;;;;1.50;1.50;;;;;19.09;64.67;100631.25;5095897;27;45381;-61
2022/10/22 11:22:27;;;;;;;;;1.00;1.00;;;;;19.14;63.98;100634.44;5096069;27;45413;-61
2022/10/22 11:25:00;;;;;;;;;3.00;3.00;;;;;19.18;63.46;100624.41;5093971;27;47181;-61
2022/10/22 11:27:49;;;;;;;;;2.75;2.75;;;;;19.22;63.57;100635.72;5095682;27;45395;-61
2022/10/22 11:30:20;;;;;;;;;1.75;1.75;;;;;19.23;63.21;100626.75;5082279;27;45532;-61
2022/10/22 11:32:50;;;;;;;;;4.00;2.75;;;;;19.20;62.85;100628.66;5095757;27;45513;-61
2022/10/22 11:35:23;;;;;;;;;2.00;2.00;;;;;19.26;62.98;100631.84;5094151;27;46987;-61
2022/10/22 11:37:50;;;;;;;;;2.75;2.00;;;;;19.28;62.65;100622.78;5095924;27;45538;-61
2022/10/22 11:40:20;;;;;;;;;3.00;2.00;;;;;19.29;62.72;100623.63;5098201;27;45476;-61
2022/10/22 11:42:51;;;;;;;;;2.50;1.50;;;;;19.35;63.06;100623.22;5099524;27;45372;-61